Time;durP1;ratioP1;P1;durP2;ratioP2;P2;SDS_P1;SDS_P2;PMS_P1;PMS_P2;Temp;Humidity;BMP_temperature;BMP_pressure;BME280_temperature;BME280_humidity;BME280_pressure;Samples;Min_cycle;Max_cycle;Signal;HPM_P1;HPM_P2
2021/12/03 00:01:28;;;;;;;7.90;4.37;;;;;;;0.92;100.00;-23841.16;5033106;28;20261;-66
2021/12/03 00:03:54;;;;;;;6.53;4.13;;;;;;;1.07;100.00;-23845.31;5033100;28;20591;-65
2021/12/03 00:06:20;;;;;;;7.30;5.00;;;;;;;0.99;100.00;-23843.00;5033306;28;20176;-66
2021/12/03 00:08:46;;;;;;;9.80;5.90;;;;;;;0.89;100.00;-23840.28;5033848;28;20220;-66
2021/12/03 00:11:13;;;;;;;9.57;5.13;;;;;;;0.50;100.00;-23829.13;5033168;28;20259;-64
2021/12/03 00:13:38;;;;;;;11.43;5.33;;;;;;;0.76;100.00;-23836.56;5033195;28;20237;-66
2021/12/03 00:16:04;;;;;;;8.07;5.23;;;;;;;0.66;100.00;-23833.84;5032621;28;20215;-66
2021/12/03 00:18:31;;;;;;;10.87;4.60;;;;;;;0.52;100.00;-23829.84;5030590;28;20562;-65
2021/12/03 00:21:00;;;;;;;5.37;4.20;;;;;;;0.55;100.00;-23830.56;5032383;28;20174;-67
2021/12/03 00:23:27;;;;;;;13.03;6.10;;;;;;;0.43;100.00;-23827.28;5031175;28;20232;-67
2021/12/03 00:25:54;;;;;;;6.97;4.93;;;;;;;0.15;100.00;-23819.25;5032598;28;20668;-67
2021/12/03 00:28:19;;;;;;;8.00;5.83;;;;;;;0.31;100.00;-23824.00;5032279;28;20218;-66
2021/12/03 00:30:45;;;;;;;5.90;3.83;;;;;;;0.57;100.00;-23831.28;5032638;28;20185;-66
2021/12/03 00:33:12;;;;;;;7.30;4.47;;;;;;;0.23;100.00;-23821.56;5032634;28;20211;-64
2021/12/03 00:35:38;;;;;;;5.73;5.00;;;;;;;0.48;100.00;-23828.56;5033038;28;20182;-67
2021/12/03 00:38:04;;;;;;;8.27;5.47;;;;;;;0.30;100.00;-23823.56;5032198;28;20180;-65
2021/12/03 00:40:34;;;;;;;4.67;3.77;;;;;;;0.26;100.00;-23822.41;5047911;28;20232;-67
2021/12/03 00:43:00;;;;;;;6.53;4.27;;;;;;;0.33;100.00;-23824.41;5032252;28;20195;-65
2021/12/03 00:45:26;;;;;;;5.90;4.47;;;;;;;0.06;100.00;-23816.69;5032390;28;20171;-65
2021/12/03 00:47:52;;;;;;;5.57;4.17;;;;;;;0.39;100.00;-23826.13;5032650;28;20611;-66
2021/12/03 00:50:22;;;;;;;4.40;4.00;;;;;;;-0.02;100.00;-23814.69;5032694;28;20171;-65
2021/12/03 00:52:48;;;;;;;8.87;5.60;;;;;;;-0.04;100.00;-23814.09;5032402;28;20195;-66
2021/12/03 00:55:17;;;;;;;7.87;4.20;;;;;;;0.09;100.00;-23817.53;5032461;28;20164;-67
2021/12/03 00:57:42;;;;;;;4.37;3.57;;;;;;;0.18;100.00;-23820.13;5046714;28;20567;-66
2021/12/03 01:00:13;;;;;;;6.97;4.90;;;;;;;0.15;100.00;-23819.41;5031461;28;20187;-64
2021/12/03 01:02:38;;;;;;;6.70;4.30;;;;;;;0.35;100.00;-23825.13;5030665;28;20274;-67
2021/12/03 01:05:04;;;;;;;7.03;4.10;;;;;;;-0.09;100.00;-23812.66;5031387;28;20250;-66
2021/12/03 01:07:30;;;;;;;5.47;4.17;;;;;;;0.32;100.00;-23824.13;5031782;28;20179;-67
2021/12/03 01:09:55;;;;;;;7.27;4.13;;;;;;;0.36;100.00;-23825.28;5032082;28;20277;-67
2021/12/03 01:12:21;;;;;;;6.80;4.67;;;;;;;0.34;100.00;-23824.69;5031584;28;20222;-64
2021/12/03 01:14:46;;;;;;;5.33;3.60;;;;;;;0.48;100.00;-23828.56;5031290;28;20206;-65
2021/12/03 01:17:12;;;;;;;3.97;3.47;;;;;;;0.11;100.00;-23818.13;5030233;28;20183;-64
2021/12/03 01:19:37;;;;;;;5.73;4.27;;;;;;;0.46;100.00;-23828.13;5031655;28;20182;-65
2021/12/03 01:22:03;;;;;;;3.73;3.33;;;;;;;0.25;100.00;-23822.25;5031508;28;20223;-65
2021/12/03 01:24:29;;;;;;;6.93;3.97;;;;;;;0.51;100.00;-23829.44;5031448;28;20171;-65
2021/12/03 01:26:55;;;;;;;7.57;4.47;;;;;;;0.39;100.00;-23826.13;5031195;28;20189;-65
2021/12/03 01:29:24;;;;;;;7.63;4.53;;;;;;;0.51;100.00;-23829.44;5034231;28;20199;-65
2021/12/03 01:31:51;;;;;;;8.30;4.00;;;;;;;0.58;100.00;-23831.56;5035459;28;20178;-65
2021/12/03 01:34:17;;;;;;;5.30;3.03;;;;;;;0.34;100.00;-23824.84;5035699;28;20192;-65
2021/12/03 01:36:43;;;;;;;5.23;4.20;;;;;;;0.38;100.00;-23825.84;5035752;28;20174;-64
2021/12/03 01:39:09;;;;;;;4.23;3.77;;;;;;;0.56;100.00;-23830.84;5034667;28;20171;-65
2021/12/03 01:41:34;;;;;;;7.23;5.20;;;;;;;0.71;100.00;-23835.28;5034547;28;20198;-65
2021/12/03 01:44:02;;;;;;;9.33;4.27;;;;;;;0.42;100.00;-23827.00;5036007;28;20171;-65
2021/12/03 01:46:29;;;;;;;9.53;5.27;;;;;;;0.48;100.00;-23828.72;5035613;28;20175;-65
2021/12/03 01:48:55;;;;;;;4.33;3.60;;;;;;;0.63;100.00;-23833.00;5036006;28;20174;-66
2021/12/03 01:51:28;;;;;;;5.37;4.43;;;;;;;0.67;100.00;-23834.16;5036071;28;20200;-67
2021/12/03 01:53:56;;;;;;;5.23;4.43;;;;;;;0.66;100.00;-23833.84;5035156;28;20234;-69
2021/12/03 01:56:23;;;;;;;7.87;4.30;;;;;;;0.57;100.00;-23831.13;5034318;28;20168;-67
2021/12/03 01:58:51;;;;;;;5.47;4.60;;;;;;;0.27;100.00;-23822.84;5035651;28;20287;-64
2021/12/03 02:01:25;;;;;;;4.40;3.37;;;;;;;0.61;100.00;-23832.44;5035331;28;20170;-65
2021/12/03 02:03:53;;;;;;;5.43;4.47;;;;;;;0.37;100.00;-23825.69;5035883;28;20175;-65
2021/12/03 02:06:20;;;;;;;8.67;5.00;;;;;;;0.46;100.00;-23828.13;5035135;28;20164;-65
2021/12/03 02:08:46;;;;;;;7.27;4.00;;;;;;;0.42;100.00;-23827.13;5035694;28;20299;-64
2021/12/03 02:11:13;;;;;;;9.27;5.17;;;;;;;0.47;100.00;-23828.28;5035411;28;20283;-65
2021/12/03 02:13:40;;;;;;;5.83;4.17;;;;;;;0.18;100.00;-23820.25;5035280;28;20675;-65
2021/12/03 02:16:06;;;;;;;8.27;5.20;;;;;;;0.44;100.00;-23827.72;5035655;28;20207;-65
2021/12/03 02:18:32;;;;;;;8.73;3.93;;;;;;;0.45;100.00;-23827.84;5035038;28;20171;-64
2021/12/03 02:21:02;;;;;;;6.53;3.33;;;;;;;0.77;100.00;-23836.88;5035074;28;20175;-65
2021/12/03 02:23:29;;;;;;;6.53;4.17;;;;;;;0.78;100.00;-23837.16;5035785;28;20226;-64
2021/12/03 02:25:56;;;;;;;6.53;4.70;;;;;;;0.88;100.00;-23840.16;5035043;28;20171;-64
2021/12/03 02:28:25;;;;;;;7.87;4.63;;;;;;;0.85;100.00;-23839.28;5033705;28;20531;-66
2021/12/03 02:30:53;;;;;;;8.43;6.33;;;;;;;0.77;100.00;-23836.88;5035567;28;20665;-66
2021/12/03 02:33:19;;;;;;;8.37;4.43;;;;;;;0.37;100.00;-23825.69;5034804;28;20234;-65
2021/12/03 02:35:45;;;;;;;6.77;5.23;;;;;;;0.26;100.00;-23822.41;5035258;28;20184;-65
2021/12/03 02:38:14;;;;;;;5.67;4.53;;;;;;;0.24;100.00;-23821.97;5035037;28;20588;-65
2021/12/03 02:40:40;;;;;;;7.50;5.30;;;;;;;0.15;100.00;-23819.25;5033936;28;20557;-66
2021/12/03 02:43:06;;;;;;;7.50;3.83;;;;;;;0.43;100.00;-23827.28;5035232;28;20695;-66
2021/12/03 02:45:32;;;;;;;5.47;4.07;;;;;;;0.59;100.00;-23831.72;5035209;28;20264;-66
2021/12/03 02:48:02;;;;;;;8.80;4.13;;;;;;;0.63;100.00;-23833.00;5034964;28;20188;-65
2021/12/03 02:50:28;;;;;;;9.13;4.27;;;;;;;0.39;100.00;-23826.28;5034144;28;20286;-65
2021/12/03 02:52:54;;;;;;;6.40;4.83;;;;;;;0.69;100.00;-23834.56;5033245;28;20220;-65
2021/12/03 02:55:20;;;;;;;5.07;3.87;;;;;;;0.61;100.00;-23832.44;5034919;28;20183;-66
2021/12/03 02:57:46;;;;;;;8.23;4.03;;;;;;;0.36;100.00;-23825.41;5034353;28;20173;-64
2021/12/03 03:00:14;;;;;;;4.73;3.77;;;;;;;0.56;100.00;-23831.00;5032986;28;20232;-66
2021/12/03 03:02:41;;;;;;;8.27;4.87;;;;;;;0.31;100.00;-23823.84;5034529;28;20201;-65
2021/12/03 03:05:08;;;;;;;7.40;4.13;;;;;;;0.72;100.00;-23835.44;5034191;28;20634;-66
2021/12/03 03:07:34;;;;;;;4.97;3.53;;;;;;;0.64;100.00;-23833.28;5034634;28;20175;-65
2021/12/03 03:09:59;;;;;;;6.50;4.60;;;;;;;0.51;100.00;-23829.44;5034071;28;20211;-65
2021/12/03 03:12:25;;;;;;;4.80;4.13;;;;;;;0.88;100.00;-23840.16;5034244;28;20235;-65
2021/12/03 03:14:55;;;;;;;6.27;4.17;;;;;;;0.80;100.00;-23837.72;5034531;28;20671;-66
2021/12/03 03:17:27;;;;;;;6.97;4.20;;;;;;;0.78;100.00;-23837.28;5032621;28;20683;-64
2021/12/03 03:19:54;;;;;;;6.13;4.43;;;;;;;0.49;100.00;-23829.00;5034798;28;20183;-65
2021/12/03 03:22:21;;;;;;;4.73;3.33;;;;;;;0.49;100.00;-23828.84;5034097;28;20615;-64
2021/12/03 03:24:47;;;;;;;7.60;4.50;;;;;;;0.65;100.00;-23833.44;5032532;28;20239;-65
2021/12/03 03:27:14;;;;;;;6.63;4.43;;;;;;;0.76;100.00;-23836.72;5032418;28;20607;-66
2021/12/03 03:29:41;;;;;;;5.03;3.70;;;;;;;0.78;100.00;-23837.28;5033262;28;20231;-64
2021/12/03 03:32:07;;;;;;;7.87;5.07;;;;;;;0.76;100.00;-23836.72;5033663;28;20199;-66
2021/12/03 03:34:32;;;;;;;6.07;4.20;;;;;;;0.30;100.00;-23823.56;5033860;28;20569;-66
2021/12/03 03:36:58;;;;;;;6.90;5.13;;;;;;;0.65;100.00;-23833.56;5033622;28;20202;-65
2021/12/03 03:39:23;;;;;;;7.27;4.07;;;;;;;0.72;100.00;-23835.44;5033682;28;20189;-64
2021/12/03 03:41:49;;;;;;;8.03;4.23;;;;;;;0.80;100.00;-23837.88;5033763;28;20179;-66
2021/12/03 03:44:16;;;;;;;7.13;4.60;;;;;;;0.79;100.00;-23837.56;5033378;28;20251;-65
2021/12/03 03:46:46;;;;;;;7.17;3.80;;;;;;;0.74;100.00;-23836.16;5033337;28;20662;-66
2021/12/03 03:49:12;;;;;;;4.40;2.90;;;;;;;0.47;100.00;-23828.28;5033564;28;20172;-65
2021/12/03 03:51:38;;;;;;;6.17;4.30;;;;;;;0.68;100.00;-23834.44;5032486;28;20176;-65
2021/12/03 03:54:03;;;;;;;3.57;3.27;;;;;;;0.71;100.00;-23835.28;5033303;28;20211;-65
2021/12/03 03:56:30;;;;;;;9.47;3.87;;;;;;;0.77;100.00;-23837.00;5033219;28;20654;-66
2021/12/03 03:58:55;;;;;;;7.83;5.50;;;;;;;0.66;100.00;-23833.72;5031868;28;20184;-66
2021/12/03 04:01:21;;;;;;;6.77;4.47;;;;;;;0.87;100.00;-23839.72;5033049;28;20187;-67
2021/12/03 04:03:47;;;;;;;7.10;5.33;;;;;;;0.50;100.00;-23829.13;5033383;28;20168;-64
2021/12/03 04:06:18;;;;;;;10.37;4.33;;;;;;;0.54;100.00;-23830.44;5032012;28;20181;-64
2021/12/03 04:08:45;;;;;;;6.43;4.23;;;;;;;0.51;100.00;-23829.44;5033059;28;20262;-65
2021/12/03 04:11:13;;;;;;;11.03;4.83;;;;;;;0.66;100.00;-23833.84;5033165;28;20202;-65
2021/12/03 04:13:39;;;;;;;3.77;3.20;;;;;;;0.51;100.00;-23829.56;5033024;28;20208;-66
2021/12/03 04:16:05;;;;;;;4.20;3.53;;;;;;;0.74;100.00;-23836.16;5031190;28;20267;-65
2021/12/03 04:18:30;;;;;;;4.63;3.63;;;;;;;0.29;100.00;-23823.28;5033087;28;20284;-65
2021/12/03 04:20:56;;;;;;;4.63;3.80;;;;;;;0.40;100.00;-23826.56;5029971;28;20180;-67
2021/12/03 04:23:22;;;;;;;6.20;5.10;;;;;;;0.57;100.00;-23831.28;5032740;28;20259;-65
2021/12/03 04:25:49;;;;;;;6.90;4.50;;;;;;;0.57;100.00;-23831.28;5032426;28;20704;-64
2021/12/03 04:28:16;;;;;;;4.43;4.03;;;;;;;0.22;100.00;-23821.25;5030450;28;20183;-65
2021/12/03 04:30:42;;;;;;;6.97;5.33;;;;;;;0.40;100.00;-23826.41;5031801;28;20178;-64
2021/12/03 04:33:08;;;;;;;7.30;4.27;;;;;;;0.25;100.00;-23822.25;5030767;28;20565;-66
2021/12/03 04:35:34;;;;;;;4.23;3.63;;;;;;;0.60;100.00;-23832.00;5031340;28;20190;-65
2021/12/03 04:38:00;;;;;;;8.37;3.87;;;;;;;0.33;100.00;-23824.56;5030061;28;20175;-64
2021/12/03 04:40:27;;;;;;;5.43;3.70;;;;;;;0.51;100.00;-23829.56;5030626;28;20202;-65
2021/12/03 04:42:53;;;;;;;4.13;3.23;;;;;;;0.20;100.00;-23820.69;5031138;28;20284;-64
2021/12/03 04:45:21;;;;;;;5.60;3.70;;;;;;;0.22;100.00;-23821.25;5030939;28;20674;-64
2021/12/03 04:47:48;;;;;;;4.87;3.43;;;;;;;0.20;100.00;-23820.69;5030580;28;20277;-65
2021/12/03 04:50:15;;;;;;;6.80;3.93;;;;;;;0.11;100.00;-23818.25;5029966;28;20187;-65
2021/12/03 04:52:41;;;;;;;7.63;4.43;;;;;;;0.19;100.00;-23820.53;5030362;28;20262;-65
2021/12/03 04:55:08;;;;;;;5.50;3.67;;;;;;;0.26;100.00;-23822.41;5028372;28;20187;-65
2021/12/03 04:57:34;;;;;;;3.40;2.97;;;;;;;0.40;100.00;-23826.41;5030335;28;20569;-66
2021/12/03 04:59:59;;;;;;;5.50;3.73;;;;;;;0.31;100.00;-23824.00;5030168;28;20179;-65
2021/12/03 05:02:26;;;;;;;6.47;4.13;;;;;;;0.17;100.00;-23819.97;5030803;28;20217;-66
2021/12/03 05:04:54;;;;;;;3.40;3.13;;;;;;;0.33;100.00;-23824.41;5029151;28;20259;-65
2021/12/03 05:07:41;;;;;;;4.83;3.13;;;;;;;0.18;100.00;-23820.25;5030689;28;20186;-66
2021/12/03 05:10:09;;;;;;;5.17;4.00;;;;;;;0.49;100.00;-23828.84;5030591;28;20233;-65
2021/12/03 05:12:36;;;;;;;4.57;3.37;;;;;;;0.53;100.00;-23830.13;5030779;28;20208;-65
2021/12/03 05:15:03;;;;;;;4.03;3.37;;;;;;;0.37;100.00;-23825.69;5031687;28;20187;-65
2021/12/03 05:17:29;;;;;;;6.80;3.93;;;;;;;0.45;100.00;-23827.84;5030683;28;20911;-65
2021/12/03 05:19:55;;;;;;;5.30;3.67;;;;;;;0.64;100.00;-23833.28;5031510;28;20220;-64
2021/12/03 05:22:21;;;;;;;3.80;3.23;;;;;;;0.58;100.00;-23831.44;5029127;28;20298;-67
2021/12/03 05:24:47;;;;;;;6.60;3.87;;;;;;;0.48;100.00;-23828.72;5029871;28;20207;-67
2021/12/03 05:27:16;;;;;;;4.33;3.43;;;;;;;0.32;100.00;-23824.13;5031700;28;20187;-66
2021/12/03 05:29:43;;;;;;;4.37;3.13;;;;;;;0.58;100.00;-23831.44;5031283;28;20683;-66
2021/12/03 05:32:09;;;;;;;6.37;4.50;;;;;;;0.69;100.00;-23834.72;5029899;28;20211;-68
2021/12/03 05:34:36;;;;;;;7.97;3.53;;;;;;;0.37;100.00;-23825.69;5031520;28;20630;-67
2021/12/03 05:37:01;;;;;;;6.83;4.63;;;;;;;0.70;100.00;-23835.00;5031577;28;20175;-66
2021/12/03 05:39:27;;;;;;;7.17;3.90;;;;;;;0.28;100.00;-23823.13;5029657;28;20287;-68
2021/12/03 05:41:53;;;;;;;3.93;2.90;;;;;;;0.52;100.00;-23829.72;5031139;28;20166;-68
2021/12/03 05:44:18;;;;;;;5.07;4.03;;;;;;;0.34;100.00;-23824.69;5031304;28;20191;-67
2021/12/03 05:46:44;;;;;;;3.80;3.43;;;;;;;0.59;100.00;-23831.72;5031117;28;20207;-69
2021/12/03 05:49:10;;;;;;;3.60;3.30;;;;;;;0.71;100.00;-23835.16;5013903;28;20172;-67
2021/12/03 05:51:35;;;;;;;8.43;3.90;;;;;;;0.43;100.00;-23827.28;5011285;28;20199;-66
2021/12/03 05:54:01;;;;;;;4.90;4.17;;;;;;;0.88;100.00;-23840.16;5010700;28;20290;-66
2021/12/03 05:56:26;;;;;;;5.10;3.73;;;;;;;0.77;100.00;-23837.00;5011900;28;21258;-66
2021/12/03 05:58:52;;;;;;;6.50;3.47;;;;;;;0.78;100.00;-23837.28;5030129;28;20191;-72
2021/12/03 06:01:18;;;;;;;8.03;3.87;;;;;;;0.91;100.00;-23840.88;5029492;28;20192;-66
2021/12/03 06:03:46;;;;;;;7.63;3.90;;;;;;;0.85;100.00;-23839.28;5030294;28;20200;-67
2021/12/03 06:06:12;;;;;;;8.87;5.03;;;;;;;0.86;100.00;-23839.44;5029944;28;20197;-66
2021/12/03 06:08:38;;;;;;;3.57;3.27;;;;;;;0.90;100.00;-23840.59;5030969;28;20662;-66
2021/12/03 06:11:03;;;;;;;5.67;3.13;;;;;;;0.65;100.00;-23833.44;5030917;28;20677;-66
2021/12/03 06:13:28;;;;;;;4.07;3.27;;;;;;;0.94;100.00;-23841.59;5029137;28;20207;-65
2021/12/03 06:15:54;;;;;;;6.50;4.87;;;;;;;1.01;100.00;-23843.72;5047983;28;20172;-66
2021/12/03 06:18:20;;;;;;;5.03;3.63;;;;;;;1.08;100.00;-23845.59;5049776;28;20186;-66
2021/12/03 06:20:46;;;;;;;4.70;3.20;;;;;;;0.77;100.00;-23837.00;5031243;28;20527;-68
2021/12/03 06:23:12;;;;;;;6.17;3.33;;;;;;;0.92;100.00;-23841.16;5032367;28;20228;-67
2021/12/03 06:25:38;;;;;;;7.27;3.67;;;;;;;1.16;100.00;-23847.88;5033367;28;20638;-67
2021/12/03 06:28:04;;;;;;;8.57;4.50;;;;;;;1.28;100.00;-23851.31;5033230;28;20182;-67
2021/12/03 06:30:30;;;;;;;5.50;3.77;;;;;;;1.36;100.00;-23853.59;5034722;28;20184;-70
2021/12/03 06:32:55;;;;;;;9.67;4.60;;;;;;;0.97;100.00;-23842.44;5033313;28;20688;-67
2021/12/03 06:35:21;;;;;;;5.83;3.93;;;;;;;1.20;100.00;-23849.03;5034566;28;20275;-67
2021/12/03 06:37:47;;;;;;;9.47;4.73;;;;;;;1.55;100.00;-23859.03;5034070;28;20186;-67
2021/12/03 06:40:19;;;;;;;5.07;3.67;;;;;;;1.61;100.00;-23860.75;5034638;28;20676;-67
2021/12/03 06:42:45;;;;;;;3.90;3.40;;;;;;;1.47;100.00;-23856.59;5033230;28;20600;-69
2021/12/03 06:45:12;;;;;;;5.73;3.87;;;;;;;1.71;100.00;-23863.47;5034052;28;20217;-67
2021/12/03 06:47:37;;;;;;;7.97;4.67;;;;;;;1.83;100.00;-23866.88;5034686;28;20641;-65
2021/12/03 06:50:05;;;;;;;5.33;4.40;;;;;;;1.90;100.00;-23868.88;5033804;28;20224;-68
2021/12/03 06:52:32;;;;;;;8.37;4.77;;;;;;;1.84;100.00;-23867.03;5029158;28;20242;-68
2021/12/03 06:55:01;;;;;;;6.03;3.43;;;;;;;1.91;100.00;-23869.16;5034203;28;20605;-67
2021/12/03 06:57:27;;;;;;;11.27;4.87;;;;;;;1.61;100.00;-23860.75;5034245;28;20272;-66
2021/12/03 06:59:52;;;;;;;6.47;3.20;;;;;;;1.96;100.00;-23870.47;5034206;28;20679;-66
2021/12/03 07:02:18;;;;;;;5.67;3.73;;;;;;;1.98;100.00;-23871.03;5032916;28;20189;-69
2021/12/03 07:04:44;;;;;;;11.57;5.50;;;;;;;2.13;100.00;-23875.47;5034065;28;20524;-67
2021/12/03 07:07:10;;;;;;;5.90;4.40;;;;;;;2.21;100.00;-23877.59;5034113;28;20278;-66
2021/12/03 07:09:36;;;;;;;6.37;4.20;;;;;;;2.38;100.00;-23882.31;5034040;28;20183;-68
2021/12/03 07:12:02;;;;;;;7.23;4.43;;;;;;;2.31;100.00;-23880.47;5034305;28;20182;-67
2021/12/03 07:14:27;;;;;;;8.27;5.00;;;;;;;2.35;100.00;-23881.47;5033969;28;20171;-67
2021/12/03 07:16:53;;;;;;;7.17;3.93;;;;;;;2.35;100.00;-23881.59;5033227;28;20182;-68
2021/12/03 07:19:18;;;;;;;6.13;4.23;;;;;;;2.64;100.00;-23889.88;5033415;28;20187;-67
2021/12/03 07:21:44;;;;;;;9.60;5.50;;;;;;;2.52;100.00;-23886.44;5033914;28;20234;-68
2021/12/03 07:24:09;;;;;;;6.63;4.37;;;;;;;2.84;100.00;-23895.28;5033063;28;20555;-67
2021/12/03 07:26:35;;;;;;;5.37;3.80;;;;;;;2.80;100.00;-23894.16;5031304;28;20187;-68
2021/12/03 07:29:00;;;;;;;10.70;4.93;;;;;;;2.81;100.00;-23894.59;5034391;28;20224;-69
2021/12/03 07:31:26;;;;;;;6.83;4.73;;;;;;;3.35;100.00;-23909.69;5034214;28;20262;-69
2021/12/03 07:33:54;;;;;;;10.43;4.70;;;;;;;3.42;100.00;-23911.84;5033485;28;20205;-70
2021/12/03 07:36:22;;;;;;;7.53;4.93;;;;;;;3.71;100.00;-23919.97;5033768;28;20626;-67
2021/12/03 07:38:49;;;;;;;12.57;4.57;;;;;;;3.91;100.00;-23925.53;5033191;28;20186;-70
2021/12/03 07:41:15;;;;;;;10.37;4.60;;;;;;;3.86;100.00;-23924.25;5033772;28;20199;-69
2021/12/03 07:43:40;;;;;;;8.20;4.23;;;;;;;4.12;100.00;-23931.34;5033987;28;20206;-66
2021/12/03 07:46:06;;;;;;;7.07;4.53;;;;;;;4.26;100.00;-23935.50;5033406;28;20597;-68
2021/12/03 07:48:32;;;;;;;11.30;5.67;;;;;;;4.48;100.00;-23941.47;5048632;28;20649;-70
2021/12/03 07:50:58;;;;;;;8.53;4.90;;;;;;;4.35;100.00;-23937.91;5033125;28;20168;-68
2021/12/03 07:53:24;;;;;;;8.80;5.03;;;;;;;4.68;100.00;-23947.31;5033311;28;20203;-70
2021/12/03 07:55:51;;;;;;;7.90;4.93;;;;;;;4.69;100.00;-23947.59;5033001;28;20167;-68
2021/12/03 07:58:17;;;;;;;9.03;5.50;;;;;;;5.02;100.00;-23956.84;5032785;28;20197;-67
2021/12/03 08:00:44;;;;;;;10.20;5.67;;;;;;;5.22;100.00;-23962.53;5032961;28;20186;-69
2021/12/03 08:03:10;;;;;;;11.40;5.20;;;;;;;5.08;100.00;-23958.53;5030706;28;20183;-66
2021/12/03 08:05:36;;;;;;;7.70;4.23;;;;;;;5.54;100.00;-23971.34;5029148;28;20662;-66
2021/12/03 08:08:02;;;;;;;9.13;5.37;;;;;;;5.69;100.00;-23975.59;5026690;28;20620;-67
2021/12/03 08:10:34;;;;;;;4.00;3.60;;;;;;;5.85;100.00;-23980.16;5031110;28;20191;-67
2021/12/03 08:12:59;;;;;;;7.10;4.53;;;;;;;5.83;100.00;-23979.59;5032388;28;20202;-67
2021/12/03 08:15:25;;;;;;;8.03;4.10;;;;;;;6.10;100.00;-23987.25;5029900;28;20187;-69
2021/12/03 08:17:51;;;;;;;8.50;4.30;;;;;;;6.41;100.00;-23995.78;5031907;28;20714;-67
2021/12/03 08:20:17;;;;;;;9.67;5.07;;;;;;;6.21;100.00;-23990.38;5027328;28;20187;-69
2021/12/03 08:22:43;;;;;;;9.33;5.10;;;;;;;6.34;100.00;-23993.94;5032131;28;20609;-67
2021/12/03 08:25:10;;;;;;;9.97;5.60;;;;;;;6.80;100.00;-24006.84;5031348;28;20179;-68
2021/12/03 08:27:36;;;;;;;12.03;6.50;;;;;;;7.12;100.00;-24015.78;5031692;28;20552;-68
2021/12/03 08:30:04;;;;;;;10.27;7.13;;;;;;;7.29;100.00;-24020.47;5032225;28;20190;-67
2021/12/03 08:32:29;;;;;;;10.17;6.13;;;;;;;7.46;100.00;-24025.44;5031965;28;20215;-70
2021/12/03 08:34:55;;;;;;;9.87;6.27;;;;;;;7.62;100.00;-24029.69;5046635;28;20667;-70
2021/12/03 08:37:20;;;;;;;15.60;6.87;;;;;;;7.84;100.00;-24036.06;5031182;28;20187;-69
2021/12/03 08:39:49;;;;;;;12.97;6.67;;;;;;;8.12;100.00;-24043.69;5029130;28;20631;-68
2021/12/03 08:42:15;;;;;;;10.17;5.67;;;;;;;8.03;100.00;-24041.28;5026079;28;20207;-69
2021/12/03 08:44:41;;;;;;;8.03;4.50;;;;;;;8.08;100.00;-24042.72;5029520;28;20183;-69
2021/12/03 08:47:07;;;;;;;8.40;5.60;;;;;;;8.21;100.00;-24046.41;5031307;28;20302;-68
2021/12/03 08:49:37;;;;;;;9.37;4.60;;;;;;;8.27;100.00;-24047.94;5030862;28;20195;-68
2021/12/03 08:57:32;;;;;;;8.03;4.37;;;;;;;8.33;100.00;-24049.78;5022719;28;20218;-69
2021/12/03 09:00:01;;;;;;;8.80;4.53;;;;;;;8.10;100.00;-24043.28;5032525;28;20214;-67
2021/12/03 09:02:27;;;;;;;12.60;6.07;;;;;;;8.38;100.00;-24051.22;5031980;28;20195;-68
2021/12/03 09:04:53;;;;;;;10.60;5.87;;;;;;;8.19;100.00;-24045.69;5029934;28;20187;-66
2021/12/03 09:07:19;;;;;;;9.77;4.77;;;;;;;8.05;100.00;-24041.84;5031626;28;20521;-68
2021/12/03 09:09:45;;;;;;;9.10;4.93;;;;;;;8.20;100.00;-24046.09;5031933;28;20623;-70
2021/12/03 09:12:11;;;;;;;10.70;5.83;;;;;;;8.51;100.00;-24054.75;5030587;28;20187;-66
2021/12/03 09:19:45;;;;;;;7.93;4.97;;;;;;;8.37;100.00;-24050.94;5028357;28;20270;-68
2021/12/03 09:22:17;;;;;;;10.07;6.03;;;;;;;8.59;100.00;-24057.00;5029579;28;20289;-68
2021/12/03 09:24:43;;;;;;;11.73;5.27;;;;;;;8.64;100.00;-24058.44;5031489;28;20269;-66
2021/12/03 09:27:08;;;;;;;9.97;5.37;;;;;;;8.86;100.00;-24064.66;5029725;28;20624;-68
2021/12/03 09:29:35;;;;;;;10.07;6.00;;;;;;;8.90;100.00;-24065.50;5031600;28;20190;-69
2021/12/03 09:32:01;;;;;;;9.60;5.27;;;;;;;8.57;100.00;-24056.31;5029551;28;20592;-68
2021/12/03 09:34:32;;;;;;;10.37;4.73;;;;;;;8.62;100.00;-24057.72;5030202;28;20230;-66
2021/12/03 09:36:58;;;;;;;10.40;5.73;;;;;;;8.96;100.00;-24067.19;5031226;28;20186;-68
2021/12/03 09:39:24;;;;;;;10.23;5.80;;;;;;;9.13;100.00;-24072.16;5030546;28;20666;-67
2021/12/03 09:41:53;;;;;;;8.90;4.90;;;;;;;9.03;100.00;-24069.31;5028011;28;20183;-69
2021/12/03 09:44:21;;;;;;;7.50;4.70;;;;;;;8.90;100.00;-24065.66;5030606;28;20202;-68
2021/12/03 09:46:48;;;;;;;8.77;4.93;;;;;;;9.20;100.00;-24074.13;5029224;28;20240;-69
2021/12/03 09:49:24;;;;;;;9.97;6.40;;;;;;;9.53;100.00;-24083.31;5032164;28;20183;-68
2021/12/03 09:54:29;;;;;;;10.10;6.00;;;;;;;9.70;100.00;-24087.97;5035688;28;20191;-67
2021/12/03 09:57:03;;;;;;;11.70;5.68;;;;;;;9.52;100.00;-24083.03;5050825;28;20175;-65
2021/12/03 10:13:30;;;;;;;9.05;5.35;;;;;;;9.78;100.00;-24090.25;5034951;28;20685;-67
2021/12/03 10:18:33;;;;;;;10.75;5.13;;;;;;;10.05;100.00;-24097.72;5034216;28;20211;-67
2021/12/03 10:21:17;;;;;;;9.63;4.90;;;;;;;9.80;100.00;-24090.66;5032906;28;20191;-67
2021/12/03 10:34:25;;;;;;;11.67;6.30;;;;;;;9.46;100.00;-24081.19;5031714;28;20221;-70
2021/12/03 10:47:22;;;;;;;9.85;6.03;;;;;;;10.12;100.00;-24099.69;5034699;28;20266;-69
2021/12/03 10:50:45;;;;;;;10.02;5.70;;;;;;;10.04;100.00;-24097.44;5033672;28;20669;-68
2021/12/03 12:18:58;;;;;;;12.10;6.25;;;;;;;10.97;100.00;-24123.53;5013409;28;20217;-68
2021/12/03 13:13:38;;;;;;;13.88;6.93;;;;;;;10.00;100.00;-24096.31;5031518;28;20234;-68
2021/12/03 14:38:46;;;;;;;24.27;11.80;;;;;;;8.16;100.00;-24044.97;5033794;28;20193;-69
2021/12/03 14:44:27;;;;;;;24.57;11.27;;;;;;;8.07;100.00;-24042.44;5029124;28;20277;-69
2021/12/03 14:55:31;;;;;;;21.73;12.73;;;;;;;8.11;100.00;-24043.56;5032826;28;20271;-67
2021/12/03 14:58:02;;;;;;;25.70;12.47;;;;;;;8.02;100.00;-24041.00;5032916;28;20194;-67
2021/12/03 15:00:37;;;;;;;21.40;12.27;;;;;;;8.04;100.00;-24041.56;5034658;28;20183;-65
2021/12/03 15:18:09;;;;;;;22.37;11.03;;;;;;;7.98;100.00;-24039.88;5014335;28;20179;-66
2021/12/03 15:20:34;;;;;;;17.93;9.73;;;;;;;7.97;100.00;-24039.72;5025866;28;20182;-68
2021/12/03 15:30:54;;;;;;;31.27;13.43;;;;;;;7.70;100.00;-24032.09;5034004;28;20542;-66
2021/12/03 15:33:40;;;;;;;22.53;11.43;;;;;;;7.78;100.00;-24034.22;5034225;28;20210;-68
2021/12/03 15:36:11;;;;;;;20.70;10.50;;;;;;;7.50;100.00;-24026.56;5034047;28;20163;-66
2021/12/03 16:05:48;;;;;;;25.50;14.43;;;;;;;7.78;100.00;-24034.34;5031055;28;20241;-67
2021/12/03 16:08:15;;;;;;;28.37;12.47;;;;;;;7.49;100.00;-24026.13;5032615;28;20183;-72
2021/12/03 16:16:27;;;;;;;25.70;11.50;;;;;;;7.15;100.00;-24016.63;5033088;28;20224;-68
2021/12/03 16:49:29;;;;;;;28.93;15.70;;;;;;;7.60;100.00;-24029.25;5031747;28;20171;-67
2021/12/03 16:53:21;;;;;;;25.53;13.67;;;;;;;7.25;100.00;-24019.34;5031491;28;20198;-69
2021/12/03 16:55:58;;;;;;;24.83;13.60;;;;;;;7.34;100.00;-24021.88;5031848;28;20155;-68
2021/12/03 16:58:23;;;;;;;25.23;12.03;;;;;;;6.95;100.00;-24011.09;5032332;28;20174;-68
2021/12/03 17:01:57;;;;;;;19.10;11.07;;;;;;;7.22;100.00;-24018.47;5032258;28;20271;-69
2021/12/03 17:03:51;;;;;;;16.93;9.87;;;;;;;7.09;100.00;-24014.94;5022969;28;20199;-66
2021/12/03 17:11:42;;;;;;;25.47;13.17;;;;;;;7.00;100.00;-24012.38;5032227;28;20167;-66
2021/12/03 17:25:13;;;;;;;17.30;9.70;;;;;;;7.25;100.00;-24019.47;5031697;28;20229;-69
2021/12/03 17:53:03;;;;;;;22.03;9.63;;;;;;;7.54;100.00;-24027.56;4994256;28;20213;-68
2021/12/03 17:55:59;;;;;;;23.30;10.77;;;;;;;7.58;100.00;-24028.53;5031926;28;20178;-70
2021/12/03 18:03:12;;;;;;;19.47;9.70;;;;;;;7.33;100.00;-24021.59;5031709;28;20171;-68
2021/12/03 18:19:26;;;;;;;18.17;10.40;;;;;;;7.70;100.00;-24032.09;5034878;28;20183;-65
2021/12/03 18:46:24;;;;;;;23.43;10.57;;;;;;;7.46;100.00;-24025.44;5034928;28;20194;-66
2021/12/03 18:49:38;;;;;;;22.53;11.37;;;;;;;7.53;100.00;-24027.28;5034183;28;20176;-68
2021/12/03 18:51:45;;;;;;;25.60;10.50;;;;;;;7.16;100.00;-24016.91;5031302;28;20184;-66
2021/12/03 18:56:48;;;;;;;16.33;9.77;;;;;;;7.33;100.00;-24021.59;5034949;28;20534;-65
2021/12/03 18:59:14;;;;;;;17.07;10.03;;;;;;;7.44;100.00;-24024.72;5034419;28;20178;-66
2021/12/03 19:01:39;;;;;;;21.17;9.97;;;;;;;7.44;100.00;-24024.72;5034406;28;20180;-66